sensor_id;sensor_type;location;lat;lon;timestamp;temperature;humidity
1301;DHT22;59099;48.806;9.160;2022-08-30T00:01:31;17.30;99.90
1301;DHT22;59099;48.806;9.160;2022-08-30T00:03:58;17.20;99.90
1301;DHT22;59099;48.806;9.160;2022-08-30T00:06:26;17.20;99.90
1301;DHT22;59099;48.806;9.160;2022-08-30T00:08:53;17.20;99.90
1301;DHT22;59099;48.806;9.160;2022-08-30T00:11:23;17.10;99.90
1301;DHT22;59099;48.806;9.160;2022-08-30T00:13:50;17.00;99.90
1301;DHT22;59099;48.806;9.160;2022-08-30T00:16:18;17.00;99.90
1301;DHT22;59099;48.806;9.160;2022-08-30T00:18:45;17.00;99.90
1301;DHT22;59099;48.806;9.160;2022-08-30T00:21:11;17.00;99.90
1301;DHT22;59099;48.806;9.160;2022-08-30T00:23:37;16.90;99.90
1301;DHT22;59099;48.806;9.160;2022-08-30T00:26:06;16.90;99.90
1301;DHT22;59099;48.806;9.160;2022-08-30T00:28:33;16.90;99.90
1301;DHT22;59099;48.806;9.160;2022-08-30T00:31:02;16.90;99.90
1301;DHT22;59099;48.806;9.160;2022-08-30T00:33:30;16.90;99.90
1301;DHT22;59099;48.806;9.160;2022-08-30T00:35:56;16.80;99.90
1301;DHT22;59099;48.806;9.160;2022-08-30T00:38:22;16.80;99.90
1301;DHT22;59099;48.806;9.160;2022-08-30T00:40:49;16.70;99.90
1301;DHT22;59099;48.806;9.160;2022-08-30T00:43:20;16.60;99.90
1301;DHT22;59099;48.806;9.160;2022-08-30T00:45:48;16.60;99.90
1301;DHT22;59099;48.806;9.160;2022-08-30T00:48:14;16.60;99.90
1301;DHT22;59099;48.806;9.160;2022-08-30T00:50:46;16.60;99.90
1301;DHT22;59099;48.806;9.160;2022-08-30T00:53:27;16.60;99.90
1301;DHT22;59099;48.806;9.160;2022-08-30T00:55:54;16.70;99.90
1301;DHT22;59099;48.806;9.160;2022-08-30T00:58:26;16.60;99.90
1301;DHT22;59099;48.806;9.160;2022-08-30T01:00:54;16.50;99.90
1301;DHT22;59099;48.806;9.160;2022-08-30T01:03:21;16.50;99.90
1301;DHT22;59099;48.806;9.160;2022-08-30T01:05:49;16.50;99.90
1301;DHT22;59099;48.806;9.160;2022-08-30T01:08:15;16.50;99.90
1301;DHT22;59099;48.806;9.160;2022-08-30T01:10:41;16.50;99.90
1301;DHT22;59099;48.806;9.160;2022-08-30T01:13:08;16.40;99.90
1301;DHT22;59099;48.806;9.160;2022-08-30T01:15:43;16.40;99.90
1301;DHT22;59099;48.806;9.160;2022-08-30T01:18:11;16.40;99.90
1301;DHT22;59099;48.806;9.160;2022-08-30T01:20:46;16.40;99.90
1301;DHT22;59099;48.806;9.160;2022-08-30T01:23:15;16.30;99.90
1301;DHT22;59099;48.806;9.160;2022-08-30T01:25:45;16.30;99.90
1301;DHT22;59099;48.806;9.160;2022-08-30T01:28:19;16.30;99.90
1301;DHT22;59099;48.806;9.160;2022-08-30T01:30:46;16.30;99.90
1301;DHT22;59099;48.806;9.160;2022-08-30T01:33:13;16.30;99.90
1301;DHT22;59099;48.806;9.160;2022-08-30T01:35:46;16.20;99.90
1301;DHT22;59099;48.806;9.160;2022-08-30T01:38:15;16.20;99.90
1301;DHT22;59099;48.806;9.160;2022-08-30T01:40:41;16.30;99.90
1301;DHT22;59099;48.806;9.160;2022-08-30T01:43:08;16.20;99.90
1301;DHT22;59099;48.806;9.160;2022-08-30T01:45:34;16.10;99.90
1301;DHT22;59099;48.806;9.160;2022-08-30T01:48:00;16.00;99.90
1301;DHT22;59099;48.806;9.160;2022-08-30T01:50:26;16.00;99.90
1301;DHT22;59099;48.806;9.160;2022-08-30T01:52:51;15.90;99.90
1301;DHT22;59099;48.806;9.160;2022-08-30T01:55:18;15.90;99.90
1301;DHT22;59099;48.806;9.160;2022-08-30T01:57:44;15.90;99.90
1301;DHT22;59099;48.806;9.160;2022-08-30T02:00:14;15.90;99.90
1301;DHT22;59099;48.806;9.160;2022-08-30T02:02:40;16.00;99.90
1301;DHT22;59099;48.806;9.160;2022-08-30T02:05:06;16.10;99.90
1301;DHT22;59099;48.806;9.160;2022-08-30T02:07:35;16.00;99.90
1301;DHT22;59099;48.806;9.160;2022-08-30T02:10:00;15.90;99.90
1301;DHT22;59099;48.806;9.160;2022-08-30T02:12:26;16.00;99.90
1301;DHT22;59099;48.806;9.160;2022-08-30T02:14:53;16.00;99.90
1301;DHT22;59099;48.806;9.160;2022-08-30T02:17:18;15.90;99.90
1301;DHT22;59099;48.806;9.160;2022-08-30T02:19:44;16.00;99.90
1301;DHT22;59099;48.806;9.160;2022-08-30T02:22:11;15.90;99.90
1301;DHT22;59099;48.806;9.160;2022-08-30T02:24:37;15.80;99.90
1301;DHT22;59099;48.806;9.160;2022-08-30T02:27:06;15.80;99.90
1301;DHT22;59099;48.806;9.160;2022-08-30T02:29:32;15.70;99.90
1301;DHT22;59099;48.806;9.160;2022-08-30T02:31:58;15.60;99.90
1301;DHT22;59099;48.806;9.160;2022-08-30T02:34:24;15.60;99.90
1301;DHT22;59099;48.806;9.160;2022-08-30T02:36:51;15.60;99.90
1301;DHT22;59099;48.806;9.160;2022-08-30T02:39:16;15.60;99.90
1301;DHT22;59099;48.806;9.160;2022-08-30T02:41:42;15.60;99.90
1301;DHT22;59099;48.806;9.160;2022-08-30T02:44:09;15.50;99.90
1301;DHT22;59099;48.806;9.160;2022-08-30T02:46:35;15.50;99.90
1301;DHT22;59099;48.806;9.160;2022-08-30T02:49:02;15.50;99.90
1301;DHT22;59099;48.806;9.160;2022-08-30T02:51:28;15.50;99.90
1301;DHT22;59099;48.806;9.160;2022-08-30T02:53:54;15.50;99.90
1301;DHT22;59099;48.806;9.160;2022-08-30T02:56:19;15.50;99.90
1301;DHT22;59099;48.806;9.160;2022-08-30T02:58:45;15.40;99.90
1301;DHT22;59099;48.806;9.160;2022-08-30T03:01:14;15.40;99.90
1301;DHT22;59099;48.806;9.160;2022-08-30T03:03:41;15.40;99.90
1301;DHT22;59099;48.806;9.160;2022-08-30T03:06:08;15.50;99.90
1301;DHT22;59099;48.806;9.160;2022-08-30T03:08:36;15.60;99.90
1301;DHT22;59099;48.806;9.160;2022-08-30T03:11:02;15.60;99.90
1301;DHT22;59099;48.806;9.160;2022-08-30T03:13:28;15.60;99.90
1301;DHT22;59099;48.806;9.160;2022-08-30T03:15:57;15.50;99.90
1301;DHT22;59099;48.806;9.160;2022-08-30T03:18:24;15.50;99.90
1301;DHT22;59099;48.806;9.160;2022-08-30T03:20:51;15.50;99.90
1301;DHT22;59099;48.806;9.160;2022-08-30T03:23:18;15.40;99.90
1301;DHT22;59099;48.806;9.160;2022-08-30T03:25:44;15.30;99.90
1301;DHT22;59099;48.806;9.160;2022-08-30T03:28:09;15.30;99.90
1301;DHT22;59099;48.806;9.160;2022-08-30T03:30:35;15.30;99.90
1301;DHT22;59099;48.806;9.160;2022-08-30T03:33:02;15.40;99.90
1301;DHT22;59099;48.806;9.160;2022-08-30T03:35:31;15.40;99.90
1301;DHT22;59099;48.806;9.160;2022-08-30T03:37:57;15.50;99.90
1301;DHT22;59099;48.806;9.160;2022-08-30T03:40:24;15.50;99.90
1301;DHT22;59099;48.806;9.160;2022-08-30T03:42:49;15.30;99.90
1301;DHT22;59099;48.806;9.160;2022-08-30T03:45:17;15.20;99.90
1301;DHT22;59099;48.806;9.160;2022-08-30T03:47:44;15.30;99.90
1301;DHT22;59099;48.806;9.160;2022-08-30T03:50:11;15.20;99.90
1301;DHT22;59099;48.806;9.160;2022-08-30T03:52:40;15.30;99.90
1301;DHT22;59099;48.806;9.160;2022-08-30T03:55:07;15.50;99.90
1301;DHT22;59099;48.806;9.160;2022-08-30T03:57:39;15.40;99.90
1301;DHT22;59099;48.806;9.160;2022-08-30T04:00:07;15.40;99.90
1301;DHT22;59099;48.806;9.160;2022-08-30T04:02:37;15.40;99.90
1301;DHT22;59099;48.806;9.160;2022-08-30T04:05:07;15.30;99.90
1301;DHT22;59099;48.806;9.160;2022-08-30T04:07:33;15.20;99.90
1301;DHT22;59099;48.806;9.160;2022-08-30T04:09:59;15.10;99.90
1301;DHT22;59099;48.806;9.160;2022-08-30T04:12:26;15.10;99.90
1301;DHT22;59099;48.806;9.160;2022-08-30T04:14:53;15.10;99.90
1301;DHT22;59099;48.806;9.160;2022-08-30T04:17:19;15.10;99.90
1301;DHT22;59099;48.806;9.160;2022-08-30T04:19:45;15.00;99.90
1301;DHT22;59099;48.806;9.160;2022-08-30T04:22:11;15.00;99.90
1301;DHT22;59099;48.806;9.160;2022-08-30T04:24:37;14.90;99.90
1301;DHT22;59099;48.806;9.160;2022-08-30T04:27:03;15.00;99.90
1301;DHT22;59099;48.806;9.160;2022-08-30T04:29:29;15.00;99.90
1301;DHT22;59099;48.806;9.160;2022-08-30T04:31:55;15.00;99.90
1301;DHT22;59099;48.806;9.160;2022-08-30T04:34:21;15.00;99.90
1301;DHT22;59099;48.806;9.160;2022-08-30T04:36:48;14.90;99.90
1301;DHT22;59099;48.806;9.160;2022-08-30T04:39:14;15.00;99.90
1301;DHT22;59099;48.806;9.160;2022-08-30T04:41:40;14.80;99.90
1301;DHT22;59099;48.806;9.160;2022-08-30T04:44:06;14.70;99.90
1301;DHT22;59099;48.806;9.160;2022-08-30T04:46:34;14.70;99.90
1301;DHT22;59099;48.806;9.160;2022-08-30T04:49:01;14.60;99.90
1301;DHT22;59099;48.806;9.160;2022-08-30T04:51:27;14.70;99.90
1301;DHT22;59099;48.806;9.160;2022-08-30T04:53:53;14.80;99.90
1301;DHT22;59099;48.806;9.160;2022-08-30T04:56:21;15.00;99.90
1301;DHT22;59099;48.806;9.160;2022-08-30T04:58:51;14.90;99.90
1301;DHT22;59099;48.806;9.160;2022-08-30T05:01:23;14.90;99.90
1301;DHT22;59099;48.806;9.160;2022-08-30T05:03:54;14.90;99.90
1301;DHT22;59099;48.806;9.160;2022-08-30T05:06:21;14.90;99.90
1301;DHT22;59099;48.806;9.160;2022-08-30T05:08:47;14.90;99.90
1301;DHT22;59099;48.806;9.160;2022-08-30T05:11:14;14.90;99.90
1301;DHT22;59099;48.806;9.160;2022-08-30T05:13:41;15.00;99.90
1301;DHT22;59099;48.806;9.160;2022-08-30T05:16:11;15.00;99.90
1301;DHT22;59099;48.806;9.160;2022-08-30T05:18:43;15.00;99.90
1301;DHT22;59099;48.806;9.160;2022-08-30T05:21:10;15.00;99.90
1301;DHT22;59099;48.806;9.160;2022-08-30T05:23:37;15.10;99.90
1301;DHT22;59099;48.806;9.160;2022-08-30T05:26:10;15.20;99.90
1301;DHT22;59099;48.806;9.160;2022-08-30T05:28:37;15.30;99.90
1301;DHT22;59099;48.806;9.160;2022-08-30T05:31:20;15.30;99.90
1301;DHT22;59099;48.806;9.160;2022-08-30T05:33:51;15.40;99.90
1301;DHT22;59099;48.806;9.160;2022-08-30T05:36:19;15.40;99.90
1301;DHT22;59099;48.806;9.160;2022-08-30T05:38:46;15.50;99.90
1301;DHT22;59099;48.806;9.160;2022-08-30T05:41:12;15.60;99.90
1301;DHT22;59099;48.806;9.160;2022-08-30T05:43:39;15.60;99.90
1301;DHT22;59099;48.806;9.160;2022-08-30T05:46:06;15.70;99.90
1301;DHT22;59099;48.806;9.160;2022-08-30T05:48:36;15.80;99.90
1301;DHT22;59099;48.806;9.160;2022-08-30T05:51:23;15.80;99.90
1301;DHT22;59099;48.806;9.160;2022-08-30T05:53:51;15.90;99.90
1301;DHT22;59099;48.806;9.160;2022-08-30T05:56:21;16.00;99.90
1301;DHT22;59099;48.806;9.160;2022-08-30T05:58:47;16.00;99.90
1301;DHT22;59099;48.806;9.160;2022-08-30T06:01:26;16.00;99.90
1301;DHT22;59099;48.806;9.160;2022-08-30T06:03:53;16.10;99.90
1301;DHT22;59099;48.806;9.160;2022-08-30T06:06:20;16.20;99.90
1301;DHT22;59099;48.806;9.160;2022-08-30T06:08:46;16.20;99.90
1301;DHT22;59099;48.806;9.160;2022-08-30T06:11:15;16.30;99.90
1301;DHT22;59099;48.806;9.160;2022-08-30T06:13:42;16.40;99.90
1301;DHT22;59099;48.806;9.160;2022-08-30T06:16:11;16.40;99.90
1301;DHT22;59099;48.806;9.160;2022-08-30T06:18:37;16.30;99.90
1301;DHT22;59099;48.806;9.160;2022-08-30T06:21:03;16.50;99.90
1301;DHT22;59099;48.806;9.160;2022-08-30T06:23:29;16.60;99.90
1301;DHT22;59099;48.806;9.160;2022-08-30T06:25:55;16.70;99.90
1301;DHT22;59099;48.806;9.160;2022-08-30T06:28:21;16.80;99.90
1301;DHT22;59099;48.806;9.160;2022-08-30T06:30:47;17.00;99.90
1301;DHT22;59099;48.806;9.160;2022-08-30T06:33:13;17.20;99.90
1301;DHT22;59099;48.806;9.160;2022-08-30T06:35:39;17.40;99.90
1301;DHT22;59099;48.806;9.160;2022-08-30T06:38:05;17.60;99.90
1301;DHT22;59099;48.806;9.160;2022-08-30T06:40:31;17.90;99.90
1301;DHT22;59099;48.806;9.160;2022-08-30T06:42:56;18.10;99.90
1301;DHT22;59099;48.806;9.160;2022-08-30T06:45:22;18.20;99.90
1301;DHT22;59099;48.806;9.160;2022-08-30T06:47:48;18.40;99.90
1301;DHT22;59099;48.806;9.160;2022-08-30T06:50:15;18.50;99.90
1301;DHT22;59099;48.806;9.160;2022-08-30T06:52:43;18.60;99.90
1301;DHT22;59099;48.806;9.160;2022-08-30T06:55:14;18.80;99.90
1301;DHT22;59099;48.806;9.160;2022-08-30T06:57:40;18.90;99.90
1301;DHT22;59099;48.806;9.160;2022-08-30T07:00:08;19.10;99.90
1301;DHT22;59099;48.806;9.160;2022-08-30T07:02:36;19.20;99.90
1301;DHT22;59099;48.806;9.160;2022-08-30T07:05:04;19.30;99.90
1301;DHT22;59099;48.806;9.160;2022-08-30T07:07:30;19.30;99.90
1301;DHT22;59099;48.806;9.160;2022-08-30T07:09:55;19.40;99.90
1301;DHT22;59099;48.806;9.160;2022-08-30T07:12:21;19.50;99.90
1301;DHT22;59099;48.806;9.160;2022-08-30T07:14:47;19.60;99.90
1301;DHT22;59099;48.806;9.160;2022-08-30T07:17:14;19.70;99.90
1301;DHT22;59099;48.806;9.160;2022-08-30T07:19:58;19.80;99.90
1301;DHT22;59099;48.806;9.160;2022-08-30T07:22:24;20.00;99.90
1301;DHT22;59099;48.806;9.160;2022-08-30T07:24:49;20.10;99.90
1301;DHT22;59099;48.806;9.160;2022-08-30T07:27:15;20.20;99.90
1301;DHT22;59099;48.806;9.160;2022-08-30T07:29:41;20.30;99.90
1301;DHT22;59099;48.806;9.160;2022-08-30T07:32:07;20.50;99.90
1301;DHT22;59099;48.806;9.160;2022-08-30T07:34:33;20.60;99.90
1301;DHT22;59099;48.806;9.160;2022-08-30T07:36:58;20.70;99.90
1301;DHT22;59099;48.806;9.160;2022-08-30T07:39:24;21.00;99.90
1301;DHT22;59099;48.806;9.160;2022-08-30T07:41:50;21.30;99.90
1301;DHT22;59099;48.806;9.160;2022-08-30T07:44:16;21.50;99.90
1301;DHT22;59099;48.806;9.160;2022-08-30T07:46:42;21.80;99.90
1301;DHT22;59099;48.806;9.160;2022-08-30T07:49:09;22.00;99.90
1301;DHT22;59099;48.806;9.160;2022-08-30T07:51:37;22.20;99.90
1301;DHT22;59099;48.806;9.160;2022-08-30T07:54:03;22.30;99.90
1301;DHT22;59099;48.806;9.160;2022-08-30T07:56:29;22.40;99.90
1301;DHT22;59099;48.806;9.160;2022-08-30T07:58:55;22.50;99.90
1301;DHT22;59099;48.806;9.160;2022-08-30T08:01:21;22.50;99.90
1301;DHT22;59099;48.806;9.160;2022-08-30T08:03:47;22.70;99.90
1301;DHT22;59099;48.806;9.160;2022-08-30T08:06:16;22.90;99.90
1301;DHT22;59099;48.806;9.160;2022-08-30T08:08:43;23.00;99.90
1301;DHT22;59099;48.806;9.160;2022-08-30T08:11:14;23.00;99.90
1301;DHT22;59099;48.806;9.160;2022-08-30T08:13:41;23.20;99.90
1301;DHT22;59099;48.806;9.160;2022-08-30T08:16:07;23.30;99.90
1301;DHT22;59099;48.806;9.160;2022-08-30T08:18:36;23.30;99.90
1301;DHT22;59099;48.806;9.160;2022-08-30T08:21:02;23.30;99.90
1301;DHT22;59099;48.806;9.160;2022-08-30T08:23:28;23.40;99.90
1301;DHT22;59099;48.806;9.160;2022-08-30T08:25:54;23.30;99.90
1301;DHT22;59099;48.806;9.160;2022-08-30T08:28:20;23.30;99.90
1301;DHT22;59099;48.806;9.160;2022-08-30T08:30:46;23.30;99.90
1301;DHT22;59099;48.806;9.160;2022-08-30T08:33:12;23.40;99.90
1301;DHT22;59099;48.806;9.160;2022-08-30T08:35:39;23.40;99.90
1301;DHT22;59099;48.806;9.160;2022-08-30T08:38:05;23.50;99.90
1301;DHT22;59099;48.806;9.160;2022-08-30T08:40:37;23.60;99.90
1301;DHT22;59099;48.806;9.160;2022-08-30T08:43:10;23.60;99.90
1301;DHT22;59099;48.806;9.160;2022-08-30T08:45:56;23.70;99.90
1301;DHT22;59099;48.806;9.160;2022-08-30T08:48:55;23.80;99.90
1301;DHT22;59099;48.806;9.160;2022-08-30T08:51:28;23.90;99.90
1301;DHT22;59099;48.806;9.160;2022-08-30T08:54:37;24.00;99.90
1301;DHT22;59099;48.806;9.160;2022-08-30T08:57:04;24.10;99.90
1301;DHT22;59099;48.806;9.160;2022-08-30T08:59:30;24.10;99.90
1301;DHT22;59099;48.806;9.160;2022-08-30T09:02:01;24.20;99.90
1301;DHT22;59099;48.806;9.160;2022-08-30T09:04:33;24.30;99.90
1301;DHT22;59099;48.806;9.160;2022-08-30T09:09:35;24.50;99.90
1301;DHT22;59099;48.806;9.160;2022-08-30T09:12:03;24.60;99.90
1301;DHT22;59099;48.806;9.160;2022-08-30T09:14:37;24.70;99.90
1301;DHT22;59099;48.806;9.160;2022-08-30T09:17:11;24.80;99.90
1301;DHT22;59099;48.806;9.160;2022-08-30T09:24:46;25.40;99.90
1301;DHT22;59099;48.806;9.160;2022-08-30T09:27:25;25.50;99.90
1301;DHT22;59099;48.806;9.160;2022-08-30T09:30:00;25.60;99.90
1301;DHT22;59099;48.806;9.160;2022-08-30T09:33:17;25.70;99.90
1301;DHT22;59099;48.806;9.160;2022-08-30T09:35:24;25.80;99.90
1301;DHT22;59099;48.806;9.160;2022-08-30T09:38:02;25.80;99.90
1301;DHT22;59099;48.806;9.160;2022-08-30T09:45:37;26.00;99.90
1301;DHT22;59099;48.806;9.160;2022-08-30T09:50:53;26.80;99.90
1301;DHT22;59099;48.806;9.160;2022-08-30T09:53:24;27.10;99.90
1301;DHT22;59099;48.806;9.160;2022-08-30T09:56:29;27.40;99.90
1301;DHT22;59099;48.806;9.160;2022-08-30T10:01:45;28.70;99.90
1301;DHT22;59099;48.806;9.160;2022-08-30T10:04:26;29.50;99.90
1301;DHT22;59099;48.806;9.160;2022-08-30T10:12:20;32.30;98.20
1301;DHT22;59099;48.806;9.160;2022-08-30T10:20:28;36.70;76.00
1301;DHT22;59099;48.806;9.160;2022-08-30T10:23:01;36.70;63.50
1301;DHT22;59099;48.806;9.160;2022-08-30T10:25:40;37.80;66.50
1301;DHT22;59099;48.806;9.160;2022-08-30T10:28:28;38.70;62.90
1301;DHT22;59099;48.806;9.160;2022-08-30T10:31:05;38.30;54.40
1301;DHT22;59099;48.806;9.160;2022-08-30T10:33:37;38.90;54.60
1301;DHT22;59099;48.806;9.160;2022-08-30T10:36:08;39.80;55.60
1301;DHT22;59099;48.806;9.160;2022-08-30T10:38:48;40.60;52.40
1301;DHT22;59099;48.806;9.160;2022-08-30T10:41:36;41.30;53.10
1301;DHT22;59099;48.806;9.160;2022-08-30T10:44:10;41.60;48.80
1301;DHT22;59099;48.806;9.160;2022-08-30T10:47:04;41.80;52.10
1301;DHT22;59099;48.806;9.160;2022-08-30T10:49:43;41.00;49.10
1301;DHT22;59099;48.806;9.160;2022-08-30T10:52:46;39.90;48.70
1301;DHT22;59099;48.806;9.160;2022-08-30T10:55:16;39.40;52.50
1301;DHT22;59099;48.806;9.160;2022-08-30T10:57:43;38.60;49.50
1301;DHT22;59099;48.806;9.160;2022-08-30T11:00:16;38.30;55.50
1301;DHT22;59099;48.806;9.160;2022-08-30T11:03:21;38.60;49.50
1301;DHT22;59099;48.806;9.160;2022-08-30T11:06:05;37.50;49.80
1301;DHT22;59099;48.806;9.160;2022-08-30T11:14:27;36.00;49.80
1301;DHT22;59099;48.806;9.160;2022-08-30T11:16:55;35.80;54.30
1301;DHT22;59099;48.806;9.160;2022-08-30T11:19:27;36.10;52.90
1301;DHT22;59099;48.806;9.160;2022-08-30T11:22:13;36.70;52.70
1301;DHT22;59099;48.806;9.160;2022-08-30T11:27:50;39.00;51.90
1301;DHT22;59099;48.806;9.160;2022-08-30T11:35:43;40.30;46.40
1301;DHT22;59099;48.806;9.160;2022-08-30T11:41:27;37.70;48.60
1301;DHT22;59099;48.806;9.160;2022-08-30T11:43:53;36.90;49.10
1301;DHT22;59099;48.806;9.160;2022-08-30T11:46:35;36.90;51.80
1301;DHT22;59099;48.806;9.160;2022-08-30T12:00:09;36.70;50.00
1301;DHT22;59099;48.806;9.160;2022-08-30T12:10:54;34.20;51.30
1301;DHT22;59099;48.806;9.160;2022-08-30T12:16:11;33.90;55.50
1301;DHT22;59099;48.806;9.160;2022-08-30T12:18:42;33.90;56.20
1301;DHT22;59099;48.806;9.160;2022-08-30T12:26:48;33.80;53.00
1301;DHT22;59099;48.806;9.160;2022-08-30T12:32:14;34.10;53.10
1301;DHT22;59099;48.806;9.160;2022-08-30T12:39:46;34.40;54.90
1301;DHT22;59099;48.806;9.160;2022-08-30T12:44:54;35.30;55.10
1301;DHT22;59099;48.806;9.160;2022-08-30T12:47:44;36.40;57.50
1301;DHT22;59099;48.806;9.160;2022-08-30T12:50:20;37.60;50.60
1301;DHT22;59099;48.806;9.160;2022-08-30T12:52:58;38.50;53.60
1301;DHT22;59099;48.806;9.160;2022-08-30T12:55:31;39.20;48.70
1301;DHT22;59099;48.806;9.160;2022-08-30T12:58:04;39.50;52.80
1301;DHT22;59099;48.806;9.160;2022-08-30T13:00:35;39.50;52.30
1301;DHT22;59099;48.806;9.160;2022-08-30T13:05:56;38.40;48.70
1301;DHT22;59099;48.806;9.160;2022-08-30T13:08:34;37.80;49.10
1301;DHT22;59099;48.806;9.160;2022-08-30T13:11:22;37.10;48.80
1301;DHT22;59099;48.806;9.160;2022-08-30T13:13:54;36.50;51.50
1301;DHT22;59099;48.806;9.160;2022-08-30T13:16:35;36.30;51.00
1301;DHT22;59099;48.806;9.160;2022-08-30T13:24:53;37.10;51.30
1301;DHT22;59099;48.806;9.160;2022-08-30T13:27:19;38.20;51.40
1301;DHT22;59099;48.806;9.160;2022-08-30T13:29:47;39.00;51.50
1301;DHT22;59099;48.806;9.160;2022-08-30T13:32:13;39.90;46.80
1301;DHT22;59099;48.806;9.160;2022-08-30T13:34:40;39.80;45.30
1301;DHT22;59099;48.806;9.160;2022-08-30T13:37:13;39.20;47.00
1301;DHT22;59099;48.806;9.160;2022-08-30T13:39:39;39.10;46.70
1301;DHT22;59099;48.806;9.160;2022-08-30T13:42:08;39.10;47.90
1301;DHT22;59099;48.806;9.160;2022-08-30T13:44:34;39.40;45.40
1301;DHT22;59099;48.806;9.160;2022-08-30T13:47:00;39.60;48.20
1301;DHT22;59099;48.806;9.160;2022-08-30T13:49:29;40.20;47.60
1301;DHT22;59099;48.806;9.160;2022-08-30T13:51:55;40.60;45.00
1301;DHT22;59099;48.806;9.160;2022-08-30T13:54:24;41.50;45.00
1301;DHT22;59099;48.806;9.160;2022-08-30T13:56:51;42.30;42.90
1301;DHT22;59099;48.806;9.160;2022-08-30T13:59:19;42.20;43.80
1301;DHT22;59099;48.806;9.160;2022-08-30T14:01:46;42.20;42.90
1301;DHT22;59099;48.806;9.160;2022-08-30T14:04:12;42.00;43.40
1301;DHT22;59099;48.806;9.160;2022-08-30T14:06:42;41.90;43.40
1301;DHT22;59099;48.806;9.160;2022-08-30T14:09:08;42.40;43.90
1301;DHT22;59099;48.806;9.160;2022-08-30T14:11:35;42.50;44.20
1301;DHT22;59099;48.806;9.160;2022-08-30T14:14:02;41.50;42.60
1301;DHT22;59099;48.806;9.160;2022-08-30T14:16:28;40.80;44.00
1301;DHT22;59099;48.806;9.160;2022-08-30T14:18:57;40.00;44.40
1301;DHT22;59099;48.806;9.160;2022-08-30T14:21:23;38.90;46.20
1301;DHT22;59099;48.806;9.160;2022-08-30T14:23:49;38.80;46.20
1301;DHT22;59099;48.806;9.160;2022-08-30T14:26:30;38.60;45.50
1301;DHT22;59099;48.806;9.160;2022-08-30T14:28:56;39.20;45.70
1301;DHT22;59099;48.806;9.160;2022-08-30T14:31:22;39.30;45.90
1301;DHT22;59099;48.806;9.160;2022-08-30T14:33:48;39.90;45.10
1301;DHT22;59099;48.806;9.160;2022-08-30T14:36:15;40.10;49.40
1301;DHT22;59099;48.806;9.160;2022-08-30T14:38:43;40.70;46.20
1301;DHT22;59099;48.806;9.160;2022-08-30T14:41:09;41.10;43.50
1301;DHT22;59099;48.806;9.160;2022-08-30T14:43:35;41.20;43.80
1301;DHT22;59099;48.806;9.160;2022-08-30T14:46:02;40.90;44.20
1301;DHT22;59099;48.806;9.160;2022-08-30T14:48:28;40.50;44.40
1301;DHT22;59099;48.806;9.160;2022-08-30T14:50:53;39.90;46.60
1301;DHT22;59099;48.806;9.160;2022-08-30T14:53:19;39.10;45.80
1301;DHT22;59099;48.806;9.160;2022-08-30T14:55:45;38.80;45.90
1301;DHT22;59099;48.806;9.160;2022-08-30T14:58:11;38.90;47.40
1301;DHT22;59099;48.806;9.160;2022-08-30T15:00:37;38.70;47.30
1301;DHT22;59099;48.806;9.160;2022-08-30T15:03:04;38.40;46.30
1301;DHT22;59099;48.806;9.160;2022-08-30T15:05:29;38.50;47.10
1301;DHT22;59099;48.806;9.160;2022-08-30T15:07:57;38.30;47.70
1301;DHT22;59099;48.806;9.160;2022-08-30T15:10:23;37.70;47.80
1301;DHT22;59099;48.806;9.160;2022-08-30T15:12:50;36.90;49.10
1301;DHT22;59099;48.806;9.160;2022-08-30T15:15:19;36.30;49.40
1301;DHT22;59099;48.806;9.160;2022-08-30T15:17:47;36.10;50.00
1301;DHT22;59099;48.806;9.160;2022-08-30T15:20:13;36.20;50.00
1301;DHT22;59099;48.806;9.160;2022-08-30T15:22:40;36.80;50.40
1301;DHT22;59099;48.806;9.160;2022-08-30T15:25:06;37.40;49.20
1301;DHT22;59099;48.806;9.160;2022-08-30T15:27:32;37.70;48.30
1301;DHT22;59099;48.806;9.160;2022-08-30T15:29:57;37.50;48.40
1301;DHT22;59099;48.806;9.160;2022-08-30T15:32:23;37.10;48.80
1301;DHT22;59099;48.806;9.160;2022-08-30T15:34:49;37.50;49.10
1301;DHT22;59099;48.806;9.160;2022-08-30T15:37:17;38.00;48.10
1301;DHT22;59099;48.806;9.160;2022-08-30T15:39:50;38.70;47.30
1301;DHT22;59099;48.806;9.160;2022-08-30T15:42:16;39.50;46.70
1301;DHT22;59099;48.806;9.160;2022-08-30T15:44:45;39.90;46.40
1301;DHT22;59099;48.806;9.160;2022-08-30T15:47:10;40.10;46.20
1301;DHT22;59099;48.806;9.160;2022-08-30T15:49:36;40.10;46.20
1301;DHT22;59099;48.806;9.160;2022-08-30T15:52:04;40.10;45.00
1301;DHT22;59099;48.806;9.160;2022-08-30T15:54:30;39.90;46.00
1301;DHT22;59099;48.806;9.160;2022-08-30T15:56:56;40.00;48.40
1301;DHT22;59099;48.806;9.160;2022-08-30T15:59:28;39.80;45.70
1301;DHT22;59099;48.806;9.160;2022-08-30T16:01:54;38.80;46.20
1301;DHT22;59099;48.806;9.160;2022-08-30T16:04:20;38.30;47.30
1301;DHT22;59099;48.806;9.160;2022-08-30T16:06:50;37.90;47.00
1301;DHT22;59099;48.806;9.160;2022-08-30T16:09:20;37.70;49.10
1301;DHT22;59099;48.806;9.160;2022-08-30T16:11:47;37.50;50.60
1301;DHT22;59099;48.806;9.160;2022-08-30T16:14:13;37.20;48.50
1301;DHT22;59099;48.806;9.160;2022-08-30T16:16:39;37.10;49.00
1301;DHT22;59099;48.806;9.160;2022-08-30T16:19:06;37.10;48.50
1301;DHT22;59099;48.806;9.160;2022-08-30T16:21:34;36.70;48.90
1301;DHT22;59099;48.806;9.160;2022-08-30T16:24:03;36.40;49.20
1301;DHT22;59099;48.806;9.160;2022-08-30T16:26:30;36.40;49.20
1301;DHT22;59099;48.806;9.160;2022-08-30T16:28:57;36.50;52.30
1301;DHT22;59099;48.806;9.160;2022-08-30T16:31:24;36.10;52.70
1301;DHT22;59099;48.806;9.160;2022-08-30T16:33:51;35.60;49.60
1301;DHT22;59099;48.806;9.160;2022-08-30T16:36:17;35.40;49.60
1301;DHT22;59099;48.806;9.160;2022-08-30T16:38:43;35.40;50.50
1301;DHT22;59099;48.806;9.160;2022-08-30T16:41:12;35.20;50.90
1301;DHT22;59099;48.806;9.160;2022-08-30T16:43:38;34.90;53.50
1301;DHT22;59099;48.806;9.160;2022-08-30T16:46:07;34.60;51.10
1301;DHT22;59099;48.806;9.160;2022-08-30T16:48:33;34.30;52.30
1301;DHT22;59099;48.806;9.160;2022-08-30T16:50:59;33.80;53.40
1301;DHT22;59099;48.806;9.160;2022-08-30T16:53:29;33.30;55.80
1301;DHT22;59099;48.806;9.160;2022-08-30T16:55:55;32.80;53.60
1301;DHT22;59099;48.806;9.160;2022-08-30T16:58:21;32.30;54.50
1301;DHT22;59099;48.806;9.160;2022-08-30T17:00:48;32.10;56.10
1301;DHT22;59099;48.806;9.160;2022-08-30T17:03:16;31.80;56.40
1301;DHT22;59099;48.806;9.160;2022-08-30T17:05:43;31.40;56.60
1301;DHT22;59099;48.806;9.160;2022-08-30T17:08:09;31.20;56.60
1301;DHT22;59099;48.806;9.160;2022-08-30T17:10:35;30.90;56.70
1301;DHT22;59099;48.806;9.160;2022-08-30T17:13:01;30.80;58.00
1301;DHT22;59099;48.806;9.160;2022-08-30T17:15:27;30.60;57.00
1301;DHT22;59099;48.806;9.160;2022-08-30T17:17:54;30.40;58.40
1301;DHT22;59099;48.806;9.160;2022-08-30T17:20:20;30.20;57.80
1301;DHT22;59099;48.806;9.160;2022-08-30T17:22:46;30.00;61.90
1301;DHT22;59099;48.806;9.160;2022-08-30T17:25:12;29.80;58.20
1301;DHT22;59099;48.806;9.160;2022-08-30T17:27:38;29.60;59.10
1301;DHT22;59099;48.806;9.160;2022-08-30T17:30:05;29.50;61.20